sensor_id;sensor_type;location;lat;lon;timestamp;pressure;altitude;pressure_sealevel;temperature;humidity
75172;BME280;63750;52.418;20.742;2022-10-16T00:00:51;100737.27;;;16.07;66.19
75172;BME280;63750;52.418;20.742;2022-10-16T00:03:20;100737.57;;;16.06;66.15
75172;BME280;63750;52.418;20.742;2022-10-16T00:05:48;100734.75;;;16.02;66.03
75172;BME280;63750;52.418;20.742;2022-10-16T00:08:16;100734.23;;;16.04;66.57
75172;BME280;63750;52.418;20.742;2022-10-16T00:10:45;100736.13;;;16.12;66.63
75172;BME280;63750;52.418;20.742;2022-10-16T00:13:13;100738.36;;;16.20;66.07
75172;BME280;63750;52.418;20.742;2022-10-16T00:15:42;100738.45;;;16.22;65.67
75172;BME280;63750;52.418;20.742;2022-10-16T00:18:10;100738.92;;;16.23;65.41
75172;BME280;63750;52.418;20.742;2022-10-16T00:20:38;100737.48;;;16.23;65.29
75172;BME280;63750;52.418;20.742;2022-10-16T00:23:06;100737.77;;;16.22;65.30
75172;BME280;63750;52.418;20.742;2022-10-16T00:25:35;100737.27;;;16.20;65.04
75172;BME280;63750;52.418;20.742;2022-10-16T00:28:03;100736.92;;;16.18;65.29
75172;BME280;63750;52.418;20.742;2022-10-16T00:30:31;100740.39;;;16.17;65.25
75172;BME280;63750;52.418;20.742;2022-10-16T00:33:00;100742.53;;;16.18;65.22
75172;BME280;63750;52.418;20.742;2022-10-16T00:35:28;100746.12;;;16.18;65.10
75172;BME280;63750;52.418;20.742;2022-10-16T00:37:57;100745.31;;;16.18;65.26
75172;BME280;63750;52.418;20.742;2022-10-16T00:40:25;100742.26;;;16.18;65.12
75172;BME280;63750;52.418;20.742;2022-10-16T00:42:53;100745.48;;;16.18;65.28
75172;BME280;63750;52.418;20.742;2022-10-16T00:45:22;100741.87;;;16.17;65.30
75172;BME280;63750;52.418;20.742;2022-10-16T00:47:52;100743.11;;;16.16;65.29
75172;BME280;63750;52.418;20.742;2022-10-16T00:50:27;100741.46;;;16.16;65.45
75172;BME280;63750;52.418;20.742;2022-10-16T00:52:57;100745.65;;;16.17;65.35
75172;BME280;63750;52.418;20.742;2022-10-16T00:55:26;100739.73;;;16.19;65.32
75172;BME280;63750;52.418;20.742;2022-10-16T00:57:55;100744.66;;;16.19;65.25
75172;BME280;63750;52.418;20.742;2022-10-16T01:00:26;100753.63;;;16.19;65.14
75172;BME280;63750;52.418;20.742;2022-10-16T01:02:57;100751.14;;;16.19;65.28
75172;BME280;63750;52.418;20.742;2022-10-16T01:05:33;100749.00;;;16.19;65.15
75172;BME280;63750;52.418;20.742;2022-10-16T01:08:12;100747.73;;;16.17;65.17
75172;BME280;63750;52.418;20.742;2022-10-16T01:10:45;100755.70;;;16.18;65.30
75172;BME280;63750;52.418;20.742;2022-10-16T01:13:21;100748.58;;;16.16;65.26
75172;BME280;63750;52.418;20.742;2022-10-16T01:15:58;100751.92;;;16.17;65.11
75172;BME280;63750;52.418;20.742;2022-10-16T01:18:32;100757.29;;;16.15;65.01
75172;BME280;63750;52.418;20.742;2022-10-16T01:21:05;100763.17;;;16.14;65.23
75172;BME280;63750;52.418;20.742;2022-10-16T01:23:47;100763.15;;;16.15;64.85
75172;BME280;63750;52.418;20.742;2022-10-16T01:26:23;100766.23;;;16.15;64.90
75172;BME280;63750;52.418;20.742;2022-10-16T01:29:01;100770.02;;;16.15;64.97
75172;BME280;63750;52.418;20.742;2022-10-16T01:31:36;100769.32;;;16.16;64.75
75172;BME280;63750;52.418;20.742;2022-10-16T01:34:12;100767.84;;;16.15;64.84
75172;BME280;63750;52.418;20.742;2022-10-16T01:36:47;100770.25;;;16.13;64.93
75172;BME280;63750;52.418;20.742;2022-10-16T01:39:21;100772.16;;;16.13;64.79
75172;BME280;63750;52.418;20.742;2022-10-16T01:41:54;100774.73;;;16.16;64.94
75172;BME280;63750;52.418;20.742;2022-10-16T01:44:25;100770.80;;;16.16;64.89
75172;BME280;63750;52.418;20.742;2022-10-16T01:46:56;100771.67;;;16.19;64.90
75172;BME280;63750;52.418;20.742;2022-10-16T01:49:28;100766.59;;;16.18;64.74
75172;BME280;63750;52.418;20.742;2022-10-16T01:52:02;100766.37;;;16.20;64.80
75172;BME280;63750;52.418;20.742;2022-10-16T01:54:34;100768.45;;;16.22;64.67
75172;BME280;63750;52.418;20.742;2022-10-16T01:57:05;100769.11;;;16.20;64.70
75172;BME280;63750;52.418;20.742;2022-10-16T01:59:39;100777.16;;;16.20;64.69
75172;BME280;63750;52.418;20.742;2022-10-16T02:02:11;100774.02;;;16.21;64.84
75172;BME280;63750;52.418;20.742;2022-10-16T02:04:45;100777.79;;;16.17;64.84
75172;BME280;63750;52.418;20.742;2022-10-16T02:07:17;100773.39;;;16.17;64.89
75172;BME280;63750;52.418;20.742;2022-10-16T02:09:45;100773.70;;;16.19;64.89
75172;BME280;63750;52.418;20.742;2022-10-16T02:12:18;100769.11;;;16.21;64.93
75172;BME280;63750;52.418;20.742;2022-10-16T02:14:49;100770.48;;;16.22;64.82
75172;BME280;63750;52.418;20.742;2022-10-16T02:17:18;100771.54;;;16.24;64.70
75172;BME280;63750;52.418;20.742;2022-10-16T02:19:49;100764.13;;;16.23;64.68
75172;BME280;63750;52.418;20.742;2022-10-16T02:22:24;100764.77;;;16.22;64.70
75172;BME280;63750;52.418;20.742;2022-10-16T02:24:56;100770.71;;;16.19;64.83
75172;BME280;63750;52.418;20.742;2022-10-16T02:27:32;100773.61;;;16.19;65.01
75172;BME280;63750;52.418;20.742;2022-10-16T02:30:05;100774.27;;;16.20;64.88
75172;BME280;63750;52.418;20.742;2022-10-16T02:32:36;100779.35;;;16.22;64.95
75172;BME280;63750;52.418;20.742;2022-10-16T02:35:06;100777.15;;;16.25;65.00
75172;BME280;63750;52.418;20.742;2022-10-16T02:37:35;100776.48;;;16.26;64.96
75172;BME280;63750;52.418;20.742;2022-10-16T02:40:05;100773.94;;;16.27;64.92
75172;BME280;63750;52.418;20.742;2022-10-16T02:42:37;100775.58;;;16.26;64.98
75172;BME280;63750;52.418;20.742;2022-10-16T02:45:07;100777.45;;;16.26;64.82
75172;BME280;63750;52.418;20.742;2022-10-16T02:47:35;100779.09;;;16.25;64.95
75172;BME280;63750;52.418;20.742;2022-10-16T02:50:05;100778.05;;;16.25;64.83
75172;BME280;63750;52.418;20.742;2022-10-16T02:52:34;100777.10;;;16.22;64.82
75172;BME280;63750;52.418;20.742;2022-10-16T02:55:02;100777.25;;;16.24;64.80
75172;BME280;63750;52.418;20.742;2022-10-16T02:57:30;100781.20;;;16.24;64.59
75172;BME280;63750;52.418;20.742;2022-10-16T02:59:59;100783.60;;;16.21;64.65
75172;BME280;63750;52.418;20.742;2022-10-16T03:02:27;100783.75;;;16.18;64.65
75172;BME280;63750;52.418;20.742;2022-10-16T03:04:56;100788.35;;;16.17;64.70
75172;BME280;63750;52.418;20.742;2022-10-16T03:07:24;100794.35;;;16.13;64.55
75172;BME280;63750;52.418;20.742;2022-10-16T03:09:52;100798.80;;;16.11;64.74
75172;BME280;63750;52.418;20.742;2022-10-16T03:12:20;100797.34;;;16.10;64.72
75172;BME280;63750;52.418;20.742;2022-10-16T03:14:49;100802.23;;;16.09;64.75
75172;BME280;63750;52.418;20.742;2022-10-16T03:17:17;100803.94;;;16.08;64.94
75172;BME280;63750;52.418;20.742;2022-10-16T03:19:46;100801.02;;;16.09;64.90
75172;BME280;63750;52.418;20.742;2022-10-16T03:22:14;100802.16;;;16.08;64.87
75172;BME280;63750;52.418;20.742;2022-10-16T03:24:42;100799.16;;;16.10;64.93
75172;BME280;63750;52.418;20.742;2022-10-16T03:27:10;100803.80;;;16.08;64.93
75172;BME280;63750;52.418;20.742;2022-10-16T03:29:38;100806.39;;;16.07;64.82
75172;BME280;63750;52.418;20.742;2022-10-16T03:32:07;100811.23;;;16.07;64.63
75172;BME280;63750;52.418;20.742;2022-10-16T03:34:35;100809.42;;;16.06;64.82
75172;BME280;63750;52.418;20.742;2022-10-16T03:37:03;100808.20;;;16.05;64.93
75172;BME280;63750;52.418;20.742;2022-10-16T03:39:32;100804.52;;;16.03;64.75
75172;BME280;63750;52.418;20.742;2022-10-16T03:42:00;100807.00;;;16.00;64.84
75172;BME280;63750;52.418;20.742;2022-10-16T03:44:28;100810.30;;;15.97;65.00
75172;BME280;63750;52.418;20.742;2022-10-16T03:46:56;100810.03;;;15.97;64.84
75172;BME280;63750;52.418;20.742;2022-10-16T03:49:25;100817.19;;;15.95;65.08
75172;BME280;63750;52.418;20.742;2022-10-16T03:51:53;100818.39;;;15.94;64.88
75172;BME280;63750;52.418;20.742;2022-10-16T03:54:22;100820.16;;;15.92;64.93
75172;BME280;63750;52.418;20.742;2022-10-16T03:56:50;100817.84;;;15.92;64.82
75172;BME280;63750;52.418;20.742;2022-10-16T03:59:18;100818.38;;;15.92;64.87
75172;BME280;63750;52.418;20.742;2022-10-16T04:01:47;100816.77;;;15.92;64.89
75172;BME280;63750;52.418;20.742;2022-10-16T04:04:15;100820.52;;;15.92;64.98
75172;BME280;63750;52.418;20.742;2022-10-16T04:06:43;100819.67;;;15.90;64.93
75172;BME280;63750;52.418;20.742;2022-10-16T04:09:11;100823.15;;;15.89;65.00
75172;BME280;63750;52.418;20.742;2022-10-16T04:11:39;100826.06;;;15.88;65.14
75172;BME280;63750;52.418;20.742;2022-10-16T04:14:08;100823.95;;;15.90;65.50
75172;BME280;63750;52.418;20.742;2022-10-16T04:16:36;100821.81;;;15.95;65.23
75172;BME280;63750;52.418;20.742;2022-10-16T04:19:04;100819.79;;;15.97;64.82
75172;BME280;63750;52.418;20.742;2022-10-16T04:21:32;100819.09;;;15.94;64.63
75172;BME280;63750;52.418;20.742;2022-10-16T04:24:01;100817.94;;;15.86;64.61
75172;BME280;63750;52.418;20.742;2022-10-16T04:26:29;100828.05;;;15.81;64.59
75172;BME280;63750;52.418;20.742;2022-10-16T04:28:57;100829.18;;;15.76;64.80
75172;BME280;63750;52.418;20.742;2022-10-16T04:31:26;100832.55;;;15.71;64.70
75172;BME280;63750;52.418;20.742;2022-10-16T04:33:54;100833.02;;;15.65;64.81
75172;BME280;63750;52.418;20.742;2022-10-16T04:36:22;100839.03;;;15.59;65.06
75172;BME280;63750;52.418;20.742;2022-10-16T04:38:50;100841.16;;;15.53;64.97
75172;BME280;63750;52.418;20.742;2022-10-16T04:41:18;100847.96;;;15.50;65.11
75172;BME280;63750;52.418;20.742;2022-10-16T04:43:47;100850.70;;;15.45;65.19
75172;BME280;63750;52.418;20.742;2022-10-16T04:46:15;100855.21;;;15.42;65.30
75172;BME280;63750;52.418;20.742;2022-10-16T04:48:44;100854.64;;;15.38;65.18
75172;BME280;63750;52.418;20.742;2022-10-16T04:51:12;100851.90;;;15.35;65.46
75172;BME280;63750;52.418;20.742;2022-10-16T04:53:40;100849.10;;;15.33;65.65
75172;BME280;63750;52.418;20.742;2022-10-16T04:56:09;100850.55;;;15.31;65.67
75172;BME280;63750;52.418;20.742;2022-10-16T04:58:37;100852.02;;;15.28;65.51
75172;BME280;63750;52.418;20.742;2022-10-16T05:01:05;100852.27;;;15.25;65.58
75172;BME280;63750;52.418;20.742;2022-10-16T05:03:34;100859.81;;;15.23;65.72
75172;BME280;63750;52.418;20.742;2022-10-16T05:06:04;100865.90;;;15.19;65.68
75172;BME280;63750;52.418;20.742;2022-10-16T05:08:33;100868.17;;;15.14;65.82
75172;BME280;63750;52.418;20.742;2022-10-16T05:11:01;100865.27;;;15.08;65.83
75172;BME280;63750;52.418;20.742;2022-10-16T05:13:29;100865.66;;;15.04;66.04
75172;BME280;63750;52.418;20.742;2022-10-16T05:15:58;100872.43;;;15.02;66.17
75172;BME280;63750;52.418;20.742;2022-10-16T05:18:26;100872.33;;;15.01;66.25
75172;BME280;63750;52.418;20.742;2022-10-16T05:20:54;100873.34;;;15.02;66.43
75172;BME280;63750;52.418;20.742;2022-10-16T05:23:23;100872.80;;;15.02;66.23
75172;BME280;63750;52.418;20.742;2022-10-16T05:25:55;100867.80;;;14.99;66.28
75172;BME280;63750;52.418;20.742;2022-10-16T05:28:23;100866.19;;;14.97;66.36
75172;BME280;63750;52.418;20.742;2022-10-16T05:30:51;100870.45;;;14.95;66.43
75172;BME280;63750;52.418;20.742;2022-10-16T05:33:20;100868.91;;;14.95;66.55
75172;BME280;63750;52.418;20.742;2022-10-16T05:35:49;100865.34;;;14.93;66.47
75172;BME280;63750;52.418;20.742;2022-10-16T05:38:17;100866.47;;;14.92;67.07
75172;BME280;63750;52.418;20.742;2022-10-16T05:40:51;100868.37;;;14.95;67.01
75172;BME280;63750;52.418;20.742;2022-10-16T05:43:20;100871.56;;;15.00;67.14
75172;BME280;63750;52.418;20.742;2022-10-16T05:45:57;100871.80;;;15.05;66.89
75172;BME280;63750;52.418;20.742;2022-10-16T05:48:26;100875.25;;;15.06;67.01
75172;BME280;63750;52.418;20.742;2022-10-16T05:51:02;100883.22;;;15.13;66.83
75172;BME280;63750;52.418;20.742;2022-10-16T05:53:32;100883.02;;;15.15;66.52
75172;BME280;63750;52.418;20.742;2022-10-16T05:56:02;100889.26;;;15.15;66.59
75172;BME280;63750;52.418;20.742;2022-10-16T05:58:32;100890.28;;;15.13;66.38
75172;BME280;63750;52.418;20.742;2022-10-16T06:01:03;100888.95;;;15.06;66.46
75172;BME280;63750;52.418;20.742;2022-10-16T06:03:32;100897.33;;;15.05;66.50
75172;BME280;63750;52.418;20.742;2022-10-16T06:06:08;100898.80;;;15.04;66.74
75172;BME280;63750;52.418;20.742;2022-10-16T06:08:37;100907.27;;;15.07;66.72
75172;BME280;63750;52.418;20.742;2022-10-16T06:11:08;100907.75;;;15.09;66.58
75172;BME280;63750;52.418;20.742;2022-10-16T06:13:37;100906.92;;;15.12;66.87
75172;BME280;63750;52.418;20.742;2022-10-16T06:16:08;100903.85;;;15.14;66.97
75172;BME280;63750;52.418;20.742;2022-10-16T06:18:37;100903.83;;;15.20;66.79
75172;BME280;63750;52.418;20.742;2022-10-16T06:21:11;100899.83;;;15.25;66.64
75172;BME280;63750;52.418;20.742;2022-10-16T06:23:40;100892.63;;;15.30;66.63
75172;BME280;63750;52.418;20.742;2022-10-16T06:26:10;100903.38;;;15.31;66.66
75172;BME280;63750;52.418;20.742;2022-10-16T06:28:40;100911.95;;;15.37;66.70
75172;BME280;63750;52.418;20.742;2022-10-16T06:31:09;100917.06;;;15.44;66.74
75172;BME280;63750;52.418;20.742;2022-10-16T06:33:38;100916.64;;;15.56;66.59
75172;BME280;63750;52.418;20.742;2022-10-16T06:36:09;100921.59;;;15.63;66.49
75172;BME280;63750;52.418;20.742;2022-10-16T06:38:38;100912.20;;;15.71;66.40
75172;BME280;63750;52.418;20.742;2022-10-16T06:41:08;100914.70;;;15.83;66.30
75172;BME280;63750;52.418;20.742;2022-10-16T06:43:37;100922.84;;;15.95;66.07
75172;BME280;63750;52.418;20.742;2022-10-16T06:46:07;100923.97;;;15.97;65.87
75172;BME280;63750;52.418;20.742;2022-10-16T06:48:37;100925.87;;;16.02;65.78
75172;BME280;63750;52.418;20.742;2022-10-16T06:51:08;100929.98;;;16.08;65.79
75172;BME280;63750;52.418;20.742;2022-10-16T06:53:38;100936.77;;;16.13;65.76
75172;BME280;63750;52.418;20.742;2022-10-16T06:56:12;100944.87;;;16.21;65.77
75172;BME280;63750;52.418;20.742;2022-10-16T06:58:40;100947.02;;;16.23;65.70
75172;BME280;63750;52.418;20.742;2022-10-16T07:01:10;100951.85;;;16.27;65.54
75172;BME280;63750;52.418;20.742;2022-10-16T07:03:41;100954.24;;;16.28;65.38
75172;BME280;63750;52.418;20.742;2022-10-16T07:06:11;100953.55;;;16.24;65.30
75172;BME280;63750;52.418;20.742;2022-10-16T07:08:42;100952.69;;;16.22;65.38
75172;BME280;63750;52.418;20.742;2022-10-16T07:11:12;100953.48;;;16.21;65.51
75172;BME280;63750;52.418;20.742;2022-10-16T07:13:44;100951.20;;;16.20;65.54
75172;BME280;63750;52.418;20.742;2022-10-16T07:16:14;100954.21;;;16.19;65.67
75172;BME280;63750;52.418;20.742;2022-10-16T07:18:44;100948.60;;;16.18;65.81
75172;BME280;63750;52.418;20.742;2022-10-16T07:21:14;100944.48;;;16.18;65.63
75172;BME280;63750;52.418;20.742;2022-10-16T07:23:44;100943.15;;;16.19;66.04
75172;BME280;63750;52.418;20.742;2022-10-16T07:26:13;100935.42;;;16.26;66.09
75172;BME280;63750;52.418;20.742;2022-10-16T07:28:42;100933.47;;;16.33;65.77
75172;BME280;63750;52.418;20.742;2022-10-16T07:31:12;100923.75;;;16.35;65.64
75172;BME280;63750;52.418;20.742;2022-10-16T07:33:42;100917.91;;;16.40;65.47
75172;BME280;63750;52.418;20.742;2022-10-16T07:36:12;100928.25;;;16.51;65.50
75172;BME280;63750;52.418;20.742;2022-10-16T07:38:40;100935.90;;;16.57;65.38
75172;BME280;63750;52.418;20.742;2022-10-16T07:41:11;100945.09;;;16.64;65.27
75172;BME280;63750;52.418;20.742;2022-10-16T07:43:44;100949.27;;;16.73;65.31
75172;BME280;63750;52.418;20.742;2022-10-16T07:46:13;100952.64;;;16.80;65.21
75172;BME280;63750;52.418;20.742;2022-10-16T07:48:42;100957.86;;;16.85;64.97
75172;BME280;63750;52.418;20.742;2022-10-16T07:51:11;100965.56;;;16.88;64.79
75172;BME280;63750;52.418;20.742;2022-10-16T07:53:40;100964.25;;;16.89;64.73
75172;BME280;63750;52.418;20.742;2022-10-16T07:56:09;100962.05;;;16.89;64.53
75172;BME280;63750;52.418;20.742;2022-10-16T07:58:38;100968.48;;;16.88;64.56
75172;BME280;63750;52.418;20.742;2022-10-16T08:01:09;100969.44;;;16.90;64.73
75172;BME280;63750;52.418;20.742;2022-10-16T08:03:37;100978.31;;;16.89;64.61
75172;BME280;63750;52.418;20.742;2022-10-16T08:06:06;100978.53;;;16.86;64.52
75172;BME280;63750;52.418;20.742;2022-10-16T08:08:34;100981.91;;;16.94;64.75
75172;BME280;63750;52.418;20.742;2022-10-16T08:11:02;100984.92;;;17.00;64.54
75172;BME280;63750;52.418;20.742;2022-10-16T08:13:31;100982.34;;;17.00;64.42
75172;BME280;63750;52.418;20.742;2022-10-16T08:16:00;100977.79;;;17.04;64.39
75172;BME280;63750;52.418;20.742;2022-10-16T08:18:28;100979.20;;;17.11;64.34
75172;BME280;63750;52.418;20.742;2022-10-16T08:21:00;100979.23;;;17.14;64.36
75172;BME280;63750;52.418;20.742;2022-10-16T08:23:29;100979.70;;;17.19;64.27
75172;BME280;63750;52.418;20.742;2022-10-16T08:26:04;100987.89;;;17.25;64.17
75172;BME280;63750;52.418;20.742;2022-10-16T08:28:32;100987.80;;;17.27;63.85
75172;BME280;63750;52.418;20.742;2022-10-16T08:31:09;100997.52;;;17.32;63.86
75172;BME280;63750;52.418;20.742;2022-10-16T08:33:38;100992.21;;;17.37;63.91
75172;BME280;63750;52.418;20.742;2022-10-16T08:36:08;100990.27;;;17.44;63.86
75172;BME280;63750;52.418;20.742;2022-10-16T08:38:37;100986.13;;;17.54;63.79
75172;BME280;63750;52.418;20.742;2022-10-16T08:41:19;100983.09;;;17.59;63.55
75172;BME280;63750;52.418;20.742;2022-10-16T08:44:03;100981.01;;;17.67;63.66
75172;BME280;63750;52.418;20.742;2022-10-16T08:46:44;100977.76;;;17.75;63.37
75172;BME280;63750;52.418;20.742;2022-10-16T08:49:19;100991.73;;;17.74;63.11
75172;BME280;63750;52.418;20.742;2022-10-16T08:51:47;100999.27;;;17.77;63.18
75172;BME280;63750;52.418;20.742;2022-10-16T08:54:26;101004.01;;;17.78;62.94
75172;BME280;63750;52.418;20.742;2022-10-16T08:56:57;101010.45;;;17.83;63.12
75172;BME280;63750;52.418;20.742;2022-10-16T08:59:29;101005.04;;;17.91;62.92
75172;BME280;63750;52.418;20.742;2022-10-16T09:01:57;101000.09;;;18.02;62.89
75172;BME280;63750;52.418;20.742;2022-10-16T09:04:47;100998.91;;;18.17;62.71
75172;BME280;63750;52.418;20.742;2022-10-16T09:07:22;100996.67;;;18.34;62.42
75172;BME280;63750;52.418;20.742;2022-10-16T09:10:04;100999.98;;;18.47;62.46
75172;BME280;63750;52.418;20.742;2022-10-16T09:12:42;100989.24;;;18.60;62.27
75172;BME280;63750;52.418;20.742;2022-10-16T09:15:24;100983.50;;;18.74;61.77
75172;BME280;63750;52.418;20.742;2022-10-16T09:18:02;100984.10;;;18.83;61.58
75172;BME280;63750;52.418;20.742;2022-10-16T09:20:50;100983.43;;;18.89;61.42
75172;BME280;63750;52.418;20.742;2022-10-16T09:23:22;100982.06;;;18.94;61.51
75172;BME280;63750;52.418;20.742;2022-10-16T09:25:54;100984.27;;;19.03;61.35
75172;BME280;63750;52.418;20.742;2022-10-16T09:28:23;100987.77;;;19.07;61.16
75172;BME280;63750;52.418;20.742;2022-10-16T09:30:52;100985.15;;;19.08;61.14
75172;BME280;63750;52.418;20.742;2022-10-16T09:33:21;100984.67;;;19.07;61.00
75172;BME280;63750;52.418;20.742;2022-10-16T09:35:53;100995.53;;;19.05;60.96
75172;BME280;63750;52.418;20.742;2022-10-16T09:38:28;100995.86;;;19.07;60.91
75172;BME280;63750;52.418;20.742;2022-10-16T09:40:58;101000.86;;;19.12;60.86
75172;BME280;63750;52.418;20.742;2022-10-16T09:43:32;101000.58;;;19.14;60.73
75172;BME280;63750;52.418;20.742;2022-10-16T09:46:04;101006.79;;;19.21;60.73
75172;BME280;63750;52.418;20.742;2022-10-16T09:48:38;101006.20;;;19.24;60.42
75172;BME280;63750;52.418;20.742;2022-10-16T09:51:18;101002.63;;;19.27;60.46
75172;BME280;63750;52.418;20.742;2022-10-16T09:53:48;100997.06;;;19.27;60.37
75172;BME280;63750;52.418;20.742;2022-10-16T09:56:26;100992.28;;;19.30;60.55
75172;BME280;63750;52.418;20.742;2022-10-16T09:58:59;100992.01;;;19.37;60.45
75172;BME280;63750;52.418;20.742;2022-10-16T10:01:31;100991.67;;;19.46;60.40
75172;BME280;63750;52.418;20.742;2022-10-16T10:04:03;100991.80;;;19.53;59.79
75172;BME280;63750;52.418;20.742;2022-10-16T10:06:33;100984.99;;;19.49;59.64
75172;BME280;63750;52.418;20.742;2022-10-16T10:09:06;100979.11;;;19.52;59.47
75172;BME280;63750;52.418;20.742;2022-10-16T10:11:51;100977.92;;;19.54;59.45
75172;BME280;63750;52.418;20.742;2022-10-16T10:14:22;100977.77;;;19.60;59.63
75172;BME280;63750;52.418;20.742;2022-10-16T10:16:52;100972.64;;;19.61;59.60
75172;BME280;63750;52.418;20.742;2022-10-16T10:19:22;100971.67;;;19.68;59.54
75172;BME280;63750;52.418;20.742;2022-10-16T10:21:51;100973.83;;;19.75;59.57
75172;BME280;63750;52.418;20.742;2022-10-16T10:24:21;100978.63;;;19.79;59.32
75172;BME280;63750;52.418;20.742;2022-10-16T10:26:54;100978.08;;;19.85;59.49
75172;BME280;63750;52.418;20.742;2022-10-16T10:29:34;100976.77;;;19.92;59.50
75172;BME280;63750;52.418;20.742;2022-10-16T10:32:18;100979.02;;;19.93;59.17
75172;BME280;63750;52.418;20.742;2022-10-16T10:35:06;100975.73;;;19.94;59.18
75172;BME280;63750;52.418;20.742;2022-10-16T10:37:44;100973.45;;;19.96;59.12
75172;BME280;63750;52.418;20.742;2022-10-16T10:40:38;100971.34;;;19.97;59.15
75172;BME280;63750;52.418;20.742;2022-10-16T10:43:12;100969.92;;;20.02;59.22
75172;BME280;63750;52.418;20.742;2022-10-16T10:45:48;100968.73;;;20.08;59.22
75172;BME280;63750;52.418;20.742;2022-10-16T10:48:28;100974.16;;;20.16;58.94
75172;BME280;63750;52.418;20.742;2022-10-16T10:51:05;100973.79;;;20.22;58.92
75172;BME280;63750;52.418;20.742;2022-10-16T10:53:44;100974.69;;;20.26;58.68
75172;BME280;63750;52.418;20.742;2022-10-16T10:56:40;100972.90;;;20.26;58.71
75172;BME280;63750;52.418;20.742;2022-10-16T10:59:23;100975.33;;;20.27;58.58
75172;BME280;63750;52.418;20.742;2022-10-16T11:01:58;100977.39;;;20.22;58.03
75172;BME280;63750;52.418;20.742;2022-10-16T11:04:38;100974.85;;;20.26;58.27
75172;BME280;63750;52.418;20.742;2022-10-16T11:07:15;100971.53;;;20.33;58.09
75172;BME280;63750;52.418;20.742;2022-10-16T11:09:47;100971.48;;;20.38;57.99
75172;BME280;63750;52.418;20.742;2022-10-16T11:12:20;100969.83;;;20.41;58.00
75172;BME280;63750;52.418;20.742;2022-10-16T11:14:53;100973.94;;;20.48;57.97
75172;BME280;63750;52.418;20.742;2022-10-16T11:17:26;100981.93;;;20.47;57.61
75172;BME280;63750;52.418;20.742;2022-10-16T11:20:00;100985.70;;;20.47;57.47
75172;BME280;63750;52.418;20.742;2022-10-16T11:22:34;100987.02;;;20.51;57.56
75172;BME280;63750;52.418;20.742;2022-10-16T11:25:14;100988.55;;;20.50;57.19
75172;BME280;63750;52.418;20.742;2022-10-16T11:27:49;100991.54;;;20.45;57.16
75172;BME280;63750;52.418;20.742;2022-10-16T11:30:21;100991.28;;;20.42;57.24
75172;BME280;63750;52.418;20.742;2022-10-16T11:33:08;100989.20;;;20.37;57.09
75172;BME280;63750;52.418;20.742;2022-10-16T11:35:44;100987.78;;;20.30;57.38
75172;BME280;63750;52.418;20.742;2022-10-16T11:38:23;100987.70;;;20.32;57.52
75172;BME280;63750;52.418;20.742;2022-10-16T11:40:56;100981.66;;;20.28;57.56
75172;BME280;63750;52.418;20.742;2022-10-16T11:43:31;100976.11;;;20.32;57.62
75172;BME280;63750;52.418;20.742;2022-10-16T11:46:04;100974.84;;;20.34;57.49
75172;BME280;63750;52.418;20.742;2022-10-16T11:48:38;100974.59;;;20.38;57.66
75172;BME280;63750;52.418;20.742;2022-10-16T11:51:14;100977.16;;;20.40;57.55
75172;BME280;63750;52.418;20.742;2022-10-16T11:53:48;100978.20;;;20.46;57.71
75172;BME280;63750;52.418;20.742;2022-10-16T11:56:20;100975.69;;;20.49;57.55
75172;BME280;63750;52.418;20.742;2022-10-16T11:58:55;100978.59;;;20.50;57.51
75172;BME280;63750;52.418;20.742;2022-10-16T12:01:30;100985.50;;;20.48;57.46
75172;BME280;63750;52.418;20.742;2022-10-16T12:04:11;100986.70;;;20.52;57.57
75172;BME280;63750;52.418;20.742;2022-10-16T12:06:46;100990.29;;;20.55;57.60
75172;BME280;63750;52.418;20.742;2022-10-16T12:09:21;100990.26;;;20.61;57.53
75172;BME280;63750;52.418;20.742;2022-10-16T12:11:50;100992.29;;;20.68;57.60
75172;BME280;63750;52.418;20.742;2022-10-16T12:14:37;100994.83;;;20.71;57.32
75172;BME280;63750;52.418;20.742;2022-10-16T12:17:24;100997.54;;;20.72;57.35
75172;BME280;63750;52.418;20.742;2022-10-16T12:20:01;100997.98;;;20.68;57.42
75172;BME280;63750;52.418;20.742;2022-10-16T12:22:35;100990.40;;;20.73;57.60
75172;BME280;63750;52.418;20.742;2022-10-16T12:25:05;100984.85;;;20.78;57.49
75172;BME280;63750;52.418;20.742;2022-10-16T12:27:34;100986.16;;;20.83;57.24
75172;BME280;63750;52.418;20.742;2022-10-16T12:30:04;100988.11;;;20.83;57.21
75172;BME280;63750;52.418;20.742;2022-10-16T12:32:34;100997.27;;;20.83;57.18
75172;BME280;63750;52.418;20.742;2022-10-16T12:35:05;100998.20;;;20.81;57.12
75172;BME280;63750;52.418;20.742;2022-10-16T12:37:36;100996.84;;;20.78;57.06
75172;BME280;63750;52.418;20.742;2022-10-16T12:40:15;100999.30;;;20.75;57.10
75172;BME280;63750;52.418;20.742;2022-10-16T12:42:45;100995.30;;;20.77;57.16
75172;BME280;63750;52.418;20.742;2022-10-16T12:45:27;100997.45;;;20.77;57.04
75172;BME280;63750;52.418;20.742;2022-10-16T12:47:57;100996.38;;;20.74;57.17
75172;BME280;63750;52.418;20.742;2022-10-16T12:50:35;100992.91;;;20.73;56.96
75172;BME280;63750;52.418;20.742;2022-10-16T12:53:16;100994.00;;;20.71;56.97
75172;BME280;63750;52.418;20.742;2022-10-16T12:55:56;101001.71;;;20.70;57.15
75172;BME280;63750;52.418;20.742;2022-10-16T12:58:43;101010.38;;;20.69;57.20
75172;BME280;63750;52.418;20.742;2022-10-16T13:01:28;101010.98;;;20.68;57.13
75172;BME280;63750;52.418;20.742;2022-10-16T13:04:10;101017.11;;;20.66;57.21